Time;durP1;ratioP1;P1;durP2;ratioP2;P2;SDS_P1;SDS_P2;PMS_P1;PMS_P2;Temp;Humidity;BMP_temperature;BMP_pressure;BME280_temperature;BME280_humidity;BME280_pressure;Samples;Min_cycle;Max_cycle;Signal;HPM_P1;HPM_P2
2023/05/10 00:02:06;;;;;;;17.00;6.60;;;;;;;22.64;48.71;100898.81;5059329;28;20025;-66
2023/05/10 00:04:32;;;;;;;14.25;6.80;;;;;;;22.66;48.83;100902.22;5053222;28;20021;-66
2023/05/10 00:06:57;;;;;;;16.45;6.47;;;;;;;23.17;47.97;100900.97;5046263;28;20024;-65
2023/05/10 00:09:23;;;;;;;15.50;6.70;;;;;;;23.06;48.30;100890.94;5048086;28;20025;-65
2023/05/10 00:11:48;;;;;;;13.70;5.60;;;;;;;23.54;47.52;100888.84;5050120;28;20142;-66
2023/05/10 00:14:14;;;;;;;14.88;6.28;;;;;;;23.64;47.34;100889.09;5049446;28;20025;-66
2023/05/10 00:16:39;;;;;;;15.07;6.72;;;;;;;23.37;48.22;100889.06;5051171;28;20025;-66
2023/05/10 00:19:04;;;;;;;14.75;5.28;;;;;;;23.32;48.21;100897.34;5066028;28;20096;-66
2023/05/10 00:21:30;;;;;;;12.10;5.18;;;;;;;23.33;48.27;100898.22;5067010;28;20530;-66
2023/05/10 00:23:55;;;;;;;13.52;5.93;;;;;;;23.09;49.09;100903.22;5070000;28;20636;-66
2023/05/10 00:26:21;;;;;;;15.02;5.60;;;;;;;23.13;49.63;100894.97;5063820;28;20024;-65
2023/05/10 00:28:46;;;;;;;11.13;5.70;;;;;;;23.51;48.02;100899.72;5049364;28;20029;-66
2023/05/10 00:31:11;;;;;;;14.00;6.32;;;;;;;23.90;47.07;100899.09;5049713;28;20488;-66
2023/05/10 00:33:37;;;;;;;15.45;5.95;;;;;;;23.95;46.45;100897.00;5054903;28;20029;-66
2023/05/10 00:36:02;;;;;;;18.13;7.70;;;;;;;22.77;49.08;100898.91;5070164;28;20472;-66
2023/05/10 00:38:28;;;;;;;16.55;7.47;;;;;;;23.11;48.47;100904.84;5062032;28;20104;-66
2023/05/10 00:40:53;;;;;;;17.50;8.43;;;;;;;22.48;49.41;100906.84;5068066;28;20491;-66
2023/05/10 00:43:19;;;;;;;21.63;8.65;;;;;;;22.80;50.34;100906.72;5067259;28;20017;-66
2023/05/10 00:45:44;;;;;;;19.27;6.93;;;;;;;22.88;50.00;100901.78;5069862;28;20530;-66
2023/05/10 00:48:10;;;;;;;20.92;7.88;;;;;;;22.91;49.52;100905.22;5065452;28;20485;-66
2023/05/10 00:50:35;;;;;;;21.15;9.23;;;;;;;22.52;50.05;100897.72;5050067;28;20037;-65
2023/05/10 00:53:02;;;;;;;16.85;7.35;;;;;;;23.16;47.82;100889.47;5050639;28;20048;-66
2023/05/10 00:55:28;;;;;;;19.25;8.00;;;;;;;23.47;47.10;100892.84;5069077;28;20045;-66
2023/05/10 00:57:54;;;;;;;19.10;8.80;;;;;;;22.68;49.03;100899.47;5068520;28;20033;-65
2023/05/10 01:00:19;;;;;;;21.35;8.02;;;;;;;22.94;48.55;100899.69;5069336;28;20024;-66
2023/05/10 01:02:46;;;;;;;19.98;8.20;;;;;;;23.10;48.04;100900.47;5068825;28;20043;-66
2023/05/10 01:05:11;;;;;;;23.42;9.50;;;;;;;22.31;49.65;100890.94;5069389;28;20021;-66
2023/05/10 01:07:37;;;;;;;24.73;8.45;;;;;;;22.51;50.27;100900.47;5069375;28;20075;-66
2023/05/10 01:10:02;;;;;;;21.85;8.18;;;;;;;22.83;49.03;100903.00;5052238;28;20502;-65
2023/05/10 01:12:28;;;;;;;24.10;9.18;;;;;;;22.79;48.82;100902.34;5063072;28;20032;-65
2023/05/10 01:14:54;;;;;;;19.48;7.75;;;;;;;22.80;48.50;100909.38;5069237;28;20054;-66
2023/05/10 01:17:21;;;;;;;19.00;8.38;;;;;;;22.72;49.57;100905.47;5068448;28;20025;-66
2023/05/10 01:19:47;;;;;;;21.35;9.20;;;;;;;21.82;52.39;100911.44;5069095;28;20575;-66
2023/05/10 01:22:12;;;;;;;25.08;8.73;;;;;;;22.06;50.89;100912.81;5067968;28;20038;-66
2023/05/10 01:24:57;;;;;;;24.33;7.93;;;;;;;21.40;54.03;100919.97;5068648;28;20538;-66
2023/05/10 01:28:05;;;;;;;20.38;8.27;;;;;;;21.74;53.68;100918.16;5069164;28;20420;-66
2023/05/10 01:30:55;;;;;;;18.77;7.13;;;;;;;21.85;53.12;100926.38;5048542;28;20504;-65
2023/05/10 01:33:36;;;;;;;22.42;8.63;;;;;;;22.28;51.81;100917.75;5048471;28;20132;-66
2023/05/10 01:36:25;;;;;;;16.00;7.80;;;;;;;22.44;50.99;100918.63;5048439;28;20033;-67
2023/05/10 01:38:57;;;;;;;23.30;7.60;;;;;;;22.41;50.90;100933.91;5064790;28;20633;-67
2023/05/10 01:41:47;;;;;;;16.48;7.97;;;;;;;21.55;53.92;100928.94;5067905;28;20017;-67
2023/05/10 01:44:28;;;;;;;16.90;7.28;;;;;;;21.55;54.08;100939.59;5062486;28;20028;-67
2023/05/10 01:47:02;;;;;;;19.55;8.93;;;;;;;21.70;54.05;100946.72;5048797;28;20029;-68
2023/05/10 01:49:32;;;;;;;18.45;8.35;;;;;;;21.74;53.22;100921.66;5048656;28;20029;-67
2023/05/10 01:52:04;;;;;;;20.02;8.05;;;;;;;22.13;52.30;100936.34;5049653;28;20441;-66
2023/05/10 01:54:32;;;;;;;17.80;8.70;;;;;;;22.19;52.61;100935.97;5059000;28;20447;-67
2023/05/10 01:57:08;;;;;;;19.35;8.68;;;;;;;22.83;50.98;100930.53;5048681;28;20060;-67
2023/05/10 01:59:40;;;;;;;24.67;9.27;;;;;;;22.40;51.70;100927.72;5052874;28;20490;-67
2023/05/10 02:02:06;;;;;;;21.00;8.90;;;;;;;22.88;50.69;100935.56;5066619;28;20028;-67
2023/05/10 02:04:35;;;;;;;23.52;9.30;;;;;;;22.04;51.61;100944.84;5048494;28;20029;-66
2023/05/10 02:07:01;;;;;;;19.63;8.85;;;;;;;21.91;52.67;100941.16;5048538;28;20087;-68
2023/05/10 02:09:28;;;;;;;20.30;8.50;;;;;;;22.56;51.45;100937.47;5049262;28;20067;-67
2023/05/10 02:11:55;;;;;;;18.33;7.45;;;;;;;22.43;52.59;100943.53;5048234;28;20039;-66
2023/05/10 02:14:21;;;;;;;17.95;8.75;;;;;;;22.23;52.39;100941.13;5046979;28;20484;-66
2023/05/10 02:16:47;;;;;;;20.70;9.23;;;;;;;22.94;50.83;100947.66;5049414;28;20029;-67
2023/05/10 02:19:14;;;;;;;22.95;10.15;;;;;;;22.81;51.47;100943.06;5067357;28;20499;-67
2023/05/10 02:21:41;;;;;;;25.20;9.30;;;;;;;22.44;50.87;100944.41;5067999;28;20028;-67
2023/05/10 02:24:08;;;;;;;20.65;8.80;;;;;;;22.50;52.23;100946.69;5067990;28;20024;-67
2023/05/10 02:26:35;;;;;;;22.45;8.02;;;;;;;22.97;50.39;100947.47;5066505;28;20094;-66
2023/05/10 02:29:03;;;;;;;21.80;8.85;;;;;;;22.85;50.60;100944.59;5069307;28;20060;-66
2023/05/10 02:31:32;;;;;;;22.70;8.63;;;;;;;22.75;49.97;100948.78;5068213;28;20058;-67
2023/05/10 02:33:58;;;;;;;23.38;8.38;;;;;;;22.84;50.38;100948.22;5064369;28;20036;-67
2023/05/10 02:36:27;;;;;;;22.73;8.60;;;;;;;22.28;51.95;100947.88;5047638;28;20590;-66
2023/05/10 02:38:53;;;;;;;21.92;8.50;;;;;;;22.17;52.09;100953.84;5047728;28;20039;-67
2023/05/10 02:41:21;;;;;;;19.63;8.85;;;;;;;22.91;50.38;100954.03;5054455;28;20024;-66
2023/05/10 02:43:48;;;;;;;23.38;10.40;;;;;;;23.13;49.10;100958.09;5053343;28;20029;-67
2023/05/10 02:46:14;;;;;;;22.42;9.40;;;;;;;22.94;50.09;100961.00;5047512;28;20028;-66
2023/05/10 02:48:39;;;;;;;25.98;8.57;;;;;;;23.68;48.93;100965.31;5062422;28;20049;-67
2023/05/10 02:51:07;;;;;;;18.67;9.05;;;;;;;23.42;49.63;100953.63;5046867;28;20107;-66
2023/05/10 02:53:35;;;;;;;19.20;8.18;;;;;;;21.90;52.50;100971.34;5048767;28;20078;-66
2023/05/10 02:56:09;;;;;;;20.63;7.75;;;;;;;22.03;53.63;100957.28;5046969;28;20086;-66
2023/05/10 02:58:35;;;;;;;17.05;7.75;;;;;;;21.87;53.26;100969.72;5047815;28;20151;-66
2023/05/10 03:01:00;;;;;;;16.30;7.60;;;;;;;22.13;53.27;100960.31;5047370;28;20028;-67
2023/05/10 03:03:26;;;;;;;19.48;8.82;;;;;;;21.50;55.75;100964.59;5053932;28;20087;-66
2023/05/10 03:05:53;;;;;;;20.73;8.20;;;;;;;22.41;52.47;100961.41;5048718;28;20025;-66
2023/05/10 03:08:19;;;;;;;17.35;8.05;;;;;;;21.79;53.90;100971.94;5046490;28;20124;-66
2023/05/10 03:11:09;;;;;;;13.07;6.95;;;;;;;20.94;56.53;100961.31;5057401;28;20111;-66
2023/05/10 03:14:06;;;;;;;14.18;7.65;;;;;;;20.66;58.40;100968.00;5066769;28;20052;-67
2023/05/10 03:17:00;;;;;;;12.43;6.57;;;;;;;21.34;57.68;100961.03;5033369;28;20070;-65
2023/05/10 03:19:47;;;;;;;16.52;7.13;;;;;;;22.02;53.70;100962.69;5046025;28;20135;-66
2023/05/10 03:22:21;;;;;;;18.95;7.53;;;;;;;21.85;54.68;100964.47;5046944;28;20120;-66
2023/05/10 03:24:48;;;;;;;18.85;9.50;;;;;;;22.92;52.22;100960.25;5048654;28;20052;-66
2023/05/10 03:27:15;;;;;;;13.45;7.78;;;;;;;22.23;52.90;100962.41;5048427;28;20396;-66
2023/05/10 03:29:42;;;;;;;17.85;7.53;;;;;;;21.68;53.97;100972.56;5063692;28;20044;-66
2023/05/10 03:32:08;;;;;;;16.20;7.78;;;;;;;21.88;54.01;100974.09;5066053;28;20028;-66
2023/05/10 03:34:33;;;;;;;18.90;8.05;;;;;;;22.09;53.02;100961.41;5047270;28;20095;-66
2023/05/10 03:36:58;;;;;;;16.20;8.32;;;;;;;21.85;53.79;100964.47;5046751;28;20028;-66
2023/05/10 03:39:24;;;;;;;17.30;8.30;;;;;;;21.71;53.92;100971.50;5046640;28;20032;-66
2023/05/10 03:41:50;;;;;;;18.13;8.15;;;;;;;21.91;54.32;100963.28;5062800;28;20041;-66
2023/05/10 03:44:15;;;;;;;19.30;8.18;;;;;;;22.13;52.90;100968.28;5061193;28;20119;-66
2023/05/10 03:46:40;;;;;;;21.08;8.85;;;;;;;22.00;53.17;100967.25;5052245;28;20469;-66
2023/05/10 03:49:06;;;;;;;18.15;8.18;;;;;;;22.61;51.36;100972.69;5058814;28;20036;-66
2023/05/10 03:51:31;;;;;;;18.58;9.43;;;;;;;21.12;55.71;100978.09;5070402;28;20025;-66
2023/05/10 03:53:57;;;;;;;22.33;9.57;;;;;;;21.93;54.09;100976.53;5065367;28;20056;-66
2023/05/10 03:56:22;;;;;;;19.27;10.32;;;;;;;21.25;55.32;100980.13;5049184;28;20396;-66
2023/05/10 03:58:47;;;;;;;20.52;9.88;;;;;;;21.30;55.86;100980.75;5061826;28;20025;-66
2023/05/10 04:01:13;;;;;;;21.42;10.10;;;;;;;20.91;57.00;100987.19;5067215;28;20495;-66
2023/05/10 04:03:38;;;;;;;18.00;9.57;;;;;;;21.21;56.39;100984.72;5052021;28;20544;-66
2023/05/10 04:06:05;;;;;;;26.42;10.05;;;;;;;21.32;56.19;100986.81;5066720;28;20029;-65
2023/05/10 04:08:31;;;;;;;19.27;10.32;;;;;;;21.08;56.64;100986.34;5055511;28;20504;-66
2023/05/10 04:11:11;;;;;;;20.80;9.85;;;;;;;22.08;54.03;100974.78;5060803;28;20385;-66
2023/05/10 04:13:36;;;;;;;16.63;8.52;;;;;;;21.99;52.80;100976.16;5069286;28;20029;-66
2023/05/10 04:16:02;;;;;;;18.27;8.13;;;;;;;20.76;56.20;100979.06;5070647;28;20118;-66
2023/05/10 04:18:27;;;;;;;22.98;9.93;;;;;;;21.28;54.79;100980.84;5070161;28;20027;-66
2023/05/10 04:20:53;;;;;;;20.60;10.43;;;;;;;22.15;52.53;100970.84;5069656;28;20124;-66
2023/05/10 04:23:18;;;;;;;21.27;9.88;;;;;;;21.78;53.66;100979.06;5067776;28;20035;-66
2023/05/10 04:25:43;;;;;;;20.73;11.13;;;;;;;21.80;54.50;100987.84;5069667;28;20115;-66
2023/05/10 04:28:09;;;;;;;15.80;8.20;;;;;;;21.16;55.39;100992.94;5069414;28;20073;-66
2023/05/10 04:30:34;;;;;;;19.27;9.93;;;;;;;21.08;56.41;100989.00;5070265;28;20119;-66
2023/05/10 04:33:01;;;;;;;21.10;10.93;;;;;;;21.12;54.91;100991.41;5068732;28;20058;-66
2023/05/10 04:35:27;;;;;;;19.63;8.88;;;;;;;21.17;56.05;101001.78;5071123;28;20024;-66
2023/05/10 04:37:52;;;;;;;21.50;9.48;;;;;;;20.62;58.16;101002.75;5058317;28;20435;-66
2023/05/10 04:40:18;;;;;;;23.15;9.57;;;;;;;21.17;56.47;101000.00;5050671;28;20449;-66
2023/05/10 04:42:43;;;;;;;17.63;9.18;;;;;;;21.60;54.66;101006.69;5063785;28;20066;-66
2023/05/10 04:45:09;;;;;;;24.38;10.18;;;;;;;21.75;54.69;100995.22;5069898;28;20137;-66
2023/05/10 04:47:36;;;;;;;23.80;10.02;;;;;;;21.15;55.29;100999.19;5069208;28;20024;-66
2023/05/10 04:50:02;;;;;;;22.33;10.40;;;;;;;21.88;54.09;101007.84;5070251;28;20032;-66
2023/05/10 04:52:28;;;;;;;21.23;10.43;;;;;;;22.25;52.43;101008.47;5054383;28;20401;-65
2023/05/10 04:54:53;;;;;;;22.42;9.68;;;;;;;21.78;53.28;101011.00;5048757;28;20048;-66
2023/05/10 04:57:18;;;;;;;20.15;11.25;;;;;;;21.31;54.99;101020.53;5052531;28;20496;-66
2023/05/10 04:59:44;;;;;;;22.92;10.88;;;;;;;20.76;57.05;101013.59;5049286;28;20044;-66
2023/05/10 05:02:09;;;;;;;22.05;10.63;;;;;;;21.02;56.15;101017.59;5048809;28;20033;-66
2023/05/10 05:04:34;;;;;;;24.67;10.15;;;;;;;20.88;56.75;101025.38;5050027;28;20028;-66
2023/05/10 05:07:00;;;;;;;20.55;10.18;;;;;;;20.38;58.30;101020.75;5070868;28;20495;-66
2023/05/10 05:09:25;;;;;;;28.40;9.68;;;;;;;21.15;57.07;101028.44;5068166;28;20081;-66
2023/05/10 05:11:51;;;;;;;22.50;11.73;;;;;;;21.19;56.20;101021.19;5068125;28;20559;-66
2023/05/10 05:14:16;;;;;;;21.25;9.30;;;;;;;20.42;59.29;101023.19;5068573;28;20105;-66
2023/05/10 05:16:41;;;;;;;19.48;9.15;;;;;;;21.19;57.01;101029.16;5058518;28;20032;-65
2023/05/10 05:19:07;;;;;;;20.67;10.93;;;;;;;21.58;54.92;101035.16;5050516;28;20104;-66
2023/05/10 05:21:32;;;;;;;24.27;11.57;;;;;;;21.61;54.06;101043.84;5049075;28;20362;-66
2023/05/10 05:23:58;;;;;;;27.48;10.50;;;;;;;21.16;56.57;101045.25;5065271;28;20029;-66
2023/05/10 05:26:23;;;;;;;20.45;9.90;;;;;;;20.42;59.15;101048.88;5050553;28;20107;-65
2023/05/10 05:28:51;;;;;;;22.73;8.43;;;;;;;20.16;59.65;101054.47;5065760;28;20035;-66
2023/05/10 05:31:17;;;;;;;24.48;8.98;;;;;;;20.55;58.93;101057.09;5054558;28;20387;-66
2023/05/10 05:33:43;;;;;;;19.67;8.25;;;;;;;20.77;57.38;101059.59;5050179;28;20138;-65
2023/05/10 05:36:08;;;;;;;19.70;7.60;;;;;;;19.85;60.90;101060.31;5053100;28;20062;-66
2023/05/10 05:38:34;;;;;;;19.17;7.70;;;;;;;20.36;57.86;101060.66;5069340;28;20025;-66
2023/05/10 05:40:59;;;;;;;15.73;6.85;;;;;;;20.62;57.14;101058.50;5065176;28;20488;-66
2023/05/10 05:43:25;;;;;;;15.23;6.20;;;;;;;20.74;56.66;101052.63;5068007;28;20719;-66
2023/05/10 05:45:53;;;;;;;11.60;5.18;;;;;;;20.93;55.63;101065.03;5055126;28;20021;-66
2023/05/10 05:48:18;;;;;;;11.07;5.07;;;;;;;21.57;53.84;101068.00;5048409;28;20094;-66
2023/05/10 05:50:43;;;;;;;11.13;4.95;;;;;;;21.18;53.49;101060.19;5055608;28;20123;-66
2023/05/10 05:53:09;;;;;;;13.25;5.40;;;;;;;21.45;53.73;101073.00;5068179;28;20033;-66
2023/05/10 05:55:35;;;;;;;8.40;4.18;;;;;;;22.05;51.47;101061.00;5052610;28;20460;-66
2023/05/10 05:58:00;;;;;;;10.25;3.97;;;;;;;22.54;51.90;101078.72;5049857;28;20472;-66
2023/05/10 06:00:26;;;;;;;8.43;4.07;;;;;;;20.89;54.42;101074.06;5057002;28;20481;-66
2023/05/10 06:02:51;;;;;;;8.43;3.90;;;;;;;20.58;55.68;101075.53;5054828;28;20111;-66
2023/05/10 06:05:17;;;;;;;7.10;3.55;;;;;;;21.65;54.98;101073.75;5047534;28;20025;-66
2023/05/10 06:07:42;;;;;;;5.82;3.17;;;;;;;21.11;54.93;101066.72;5048344;28;20063;-66
2023/05/10 06:10:08;;;;;;;7.05;2.90;;;;;;;21.71;52.99;101070.81;5048119;28;20052;-66
2023/05/10 06:12:34;;;;;;;5.22;2.97;;;;;;;21.35;54.42;101075.25;5053804;28;20476;-66
2023/05/10 06:14:59;;;;;;;9.00;3.47;;;;;;;21.57;55.13;101075.97;5063335;28;20082;-66
2023/05/10 06:17:25;;;;;;;5.40;3.25;;;;;;;21.46;54.90;101069.41;5051176;28;20029;-66
2023/05/10 06:19:50;;;;;;;6.55;2.83;;;;;;;22.20;52.25;101081.44;5050105;28;20378;-66
2023/05/10 06:22:16;;;;;;;5.75;2.88;;;;;;;22.19;53.11;101090.38;5055463;28;20032;-66
2023/05/10 06:24:41;;;;;;;4.18;2.67;;;;;;;21.51;54.25;101088.63;5059165;28;20032;-66
2023/05/10 06:27:07;;;;;;;5.20;2.88;;;;;;;21.11;54.71;101084.50;5060418;28;20036;-66
2023/05/10 06:29:33;;;;;;;5.18;2.47;;;;;;;21.44;55.30;101086.38;5067327;28;20032;-65
2023/05/10 06:31:58;;;;;;;5.53;2.55;;;;;;;21.75;53.96;101085.66;5067970;28;20049;-65
2023/05/10 06:34:24;;;;;;;3.05;2.00;;;;;;;22.24;53.12;101089.25;5058196;28;20028;-65
2023/05/10 06:36:49;;;;;;;5.30;2.60;;;;;;;22.62;51.66;101091.63;5065238;28;20032;-65
2023/05/10 06:39:15;;;;;;;3.17;2.03;;;;;;;22.04;53.56;101091.22;5067000;28;20028;-66
2023/05/10 06:41:41;;;;;;;3.10;2.00;;;;;;;22.61;52.06;101095.22;5066307;28;20028;-65
2023/05/10 06:44:06;;;;;;;3.40;2.42;;;;;;;22.46;52.06;101089.84;5068682;28;20369;-65
2023/05/10 06:46:32;;;;;;;4.70;2.42;;;;;;;22.68;51.73;101088.59;5067046;28;20539;-64
2023/05/10 06:48:57;;;;;;;4.97;2.92;;;;;;;24.22;49.07;101084.75;5066029;28;20515;-65
2023/05/10 06:51:22;;;;;;;3.13;2.15;;;;;;;23.24;49.37;101090.75;5065380;28;20343;-65
2023/05/10 06:53:48;;;;;;;4.80;2.20;;;;;;;22.77;50.70;101085.41;5064483;28;20236;-65
2023/05/10 06:56:13;;;;;;;3.08;1.85;;;;;;;24.05;48.76;101088.47;5066294;28;20541;-65
2023/05/10 06:58:39;;;;;;;5.20;2.15;;;;;;;22.75;49.99;101095.31;5066996;28;20024;-66
2023/05/10 07:01:05;;;;;;;2.72;1.85;;;;;;;23.19;49.28;101097.22;5065472;28;20021;-66
2023/05/10 07:03:31;;;;;;;2.33;1.73;;;;;;;22.82;50.24;101099.34;5058495;28;20040;-66
2023/05/10 07:06:07;;;;;;;2.58;1.85;;;;;;;23.54;48.91;101094.25;5068285;28;20543;-66
2023/05/10 07:08:33;;;;;;;2.30;1.80;;;;;;;23.95;48.60;101099.84;5068285;28;20115;-66
2023/05/10 07:11:01;;;;;;;1.70;1.50;;;;;;;23.66;47.95;101099.81;5068322;28;20495;-65
2023/05/10 07:13:27;;;;;;;2.95;1.77;;;;;;;23.77;48.27;101101.78;5067715;28;20040;-64
2023/05/10 07:15:52;;;;;;;2.42;1.48;;;;;;;24.17;47.03;101110.88;5068747;28;20107;-65
2023/05/10 07:18:17;;;;;;;1.85;1.45;;;;;;;24.04;46.89;101115.28;5048937;28;20020;-65
2023/05/10 07:20:43;;;;;;;1.80;1.30;;;;;;;23.57;48.07;101111.88;5047964;28;20033;-64
2023/05/10 07:23:08;;;;;;;1.10;1.00;;;;;;;23.92;47.76;101118.72;5051159;28;20396;-65
2023/05/10 07:25:33;;;;;;;2.03;1.27;;;;;;;23.79;47.43;101119.44;5068727;28;20075;-65
2023/05/10 07:27:59;;;;;;;2.15;1.40;;;;;;;23.37;48.63;101113.09;5059771;28;20101;-65
2023/05/10 07:30:24;;;;;;;2.72;1.17;;;;;;;22.73;48.33;101121.16;5047465;28;20025;-65
2023/05/10 07:32:49;;;;;;;2.20;1.63;;;;;;;23.14;48.00;101123.28;5050979;28;20071;-65
2023/05/10 07:35:15;;;;;;;3.22;2.10;;;;;;;23.35;48.64;101121.16;5059760;28;20486;-65
2023/05/10 07:37:40;;;;;;;2.03;1.52;;;;;;;23.91;47.40;101119.69;5062621;28;20021;-66
2023/05/10 07:40:06;;;;;;;2.55;1.75;;;;;;;24.58;45.50;101125.25;5062332;28;20031;-65
2023/05/10 07:42:32;;;;;;;3.50;1.88;;;;;;;24.44;46.04;101122.59;5064329;28;20389;-65
2023/05/10 07:44:57;;;;;;;2.03;1.40;;;;;;;23.78;46.90;101125.75;5067765;28;20035;-65
2023/05/10 07:47:23;;;;;;;1.92;1.27;;;;;;;24.52;46.12;101126.50;5066428;28;20867;-66
2023/05/10 07:49:48;;;;;;;3.28;1.90;;;;;;;24.29;45.75;101124.41;5065238;28;20530;-65
2023/05/10 07:52:14;;;;;;;2.72;1.88;;;;;;;24.38;45.43;101126.50;5047304;28;20548;-66
2023/05/10 07:54:39;;;;;;;4.97;2.35;;;;;;;24.59;45.50;101126.09;5053920;28;20052;-66
2023/05/10 07:57:05;;;;;;;3.20;1.90;;;;;;;24.56;45.77;101122.66;5064416;28;20039;-65
2023/05/10 07:59:30;;;;;;;2.80;1.77;;;;;;;24.82;45.39;101125.47;5047112;28;20028;-65
2023/05/10 08:01:56;;;;;;;2.63;1.90;;;;;;;24.79;45.57;101123.00;5061226;28;20511;-65
2023/05/10 08:04:22;;;;;;;5.20;2.15;;;;;;;24.21;45.86;101128.44;5062482;28;20468;-65
2023/05/10 08:06:47;;;;;;;2.90;1.70;;;;;;;24.20;46.36;101132.06;5061914;28;20024;-66
2023/05/10 08:09:13;;;;;;;2.65;1.80;;;;;;;24.43;45.89;101142.22;5060985;28;20028;-65
2023/05/10 08:11:38;;;;;;;2.53;1.67;;;;;;;23.83;46.99;101144.97;5066805;28;20086;-65
2023/05/10 08:14:04;;;;;;;2.58;1.63;;;;;;;23.95;46.76;101150.56;5059016;28;20025;-67
2023/05/10 08:16:29;;;;;;;2.97;1.92;;;;;;;24.20;46.74;101150.75;5063452;28;20054;-65
2023/05/10 08:18:55;;;;;;;2.63;1.48;;;;;;;24.39;45.86;101152.28;5065426;28;20029;-66
2023/05/10 08:21:20;;;;;;;3.08;2.13;;;;;;;23.81;48.21;101152.22;5055431;28;20036;-65
2023/05/10 08:23:45;;;;;;;4.80;2.13;;;;;;;23.60;47.16;101159.72;5052190;28;20061;-65
2023/05/10 08:26:11;;;;;;;3.53;2.20;;;;;;;23.82;48.08;101153.97;5066287;28;20059;-65
2023/05/10 08:28:36;;;;;;;5.80;2.65;;;;;;;23.92;47.05;101161.41;5061055;28;20017;-65
2023/05/10 08:31:02;;;;;;;4.38;2.13;;;;;;;23.24;48.14;101165.41;5052853;28;20497;-65
2023/05/10 08:33:27;;;;;;;3.85;2.35;;;;;;;23.36;48.17;101167.38;5064115;28;20028;-66
2023/05/10 08:35:52;;;;;;;5.82;2.25;;;;;;;23.81;47.25;101168.25;5060557;28;20370;-65
2023/05/10 08:38:18;;;;;;;3.10;2.30;;;;;;;23.06;48.87;101176.16;5049268;28;20086;-66
2023/05/10 08:40:45;;;;;;;4.03;2.30;;;;;;;23.24;47.21;101170.75;5063061;28;20064;-65
2023/05/10 08:43:12;;;;;;;3.97;2.60;;;;;;;24.46;46.35;101168.78;5061332;28;20021;-65
2023/05/10 08:45:40;;;;;;;5.20;2.53;;;;;;;24.67;45.71;101169.25;5064578;28;20021;-65
2023/05/10 08:48:07;;;;;;;6.38;2.92;;;;;;;25.09;45.38;101180.78;5078478;28;20019;-64
2023/05/10 08:50:36;;;;;;;3.47;2.25;;;;;;;24.87;45.14;101187.50;5069645;28;20032;-65
2023/05/10 08:53:11;;;;;;;4.05;2.05;;;;;;;24.01;46.74;101180.38;5079715;28;20028;-65
2023/05/10 08:55:38;;;;;;;4.35;2.22;;;;;;;24.13;46.83;101186.78;5052022;28;20106;-65
2023/05/10 08:58:05;;;;;;;3.58;1.83;;;;;;;24.03;46.94;101183.84;5068579;28;20473;-66
2023/05/10 09:00:31;;;;;;;3.42;2.10;;;;;;;24.33;45.46;101190.91;5069526;28;20036;-65
2023/05/10 09:02:57;;;;;;;3.95;2.25;;;;;;;24.81;46.57;101182.59;5077536;28;20055;-65
2023/05/10 09:05:23;;;;;;;3.83;2.05;;;;;;;25.60;44.33;101190.78;5089720;28;20522;-66
2023/05/10 09:07:48;;;;;;;4.93;2.17;;;;;;;25.47;44.86;101188.09;5071904;28;20088;-65
2023/05/10 09:10:15;;;;;;;3.33;2.03;;;;;;;25.54;43.48;101194.75;5060010;28;20051;-65
2023/05/10 09:12:41;;;;;;;4.40;1.88;;;;;;;24.47;45.39;101198.06;5090362;28;20023;-65
2023/05/10 09:15:08;;;;;;;2.05;1.52;;;;;;;24.41;45.57;101197.59;5061004;28;20558;-66
2023/05/10 09:17:34;;;;;;;5.22;1.88;;;;;;;24.25;47.15;101203.00;5056443;28;20032;-65
2023/05/10 09:20:01;;;;;;;3.50;1.48;;;;;;;24.21;45.52;101205.88;5053848;28;20036;-65
2023/05/10 09:22:27;;;;;;;2.08;1.45;;;;;;;24.35;44.50;101206.84;5089165;28;20480;-65
2023/05/10 09:25:14;;;;;;;2.17;1.60;;;;;;;25.18;43.53;101198.00;5067145;28;20039;-66
2023/05/10 09:27:41;;;;;;;2.22;1.50;;;;;;;25.07;44.15;101212.09;5053692;28;20028;-66
2023/05/10 09:30:08;;;;;;;2.50;1.73;;;;;;;25.09;43.04;101207.50;5054670;28;20029;-65
2023/05/10 09:32:46;;;;;;;3.70;1.52;;;;;;;25.93;42.03;101204.66;5090118;28;20055;-65
2023/05/10 09:35:15;;;;;;;3.33;2.15;;;;;;;26.70;39.38;101204.63;5072029;28;20028;-66
2023/05/10 09:37:44;;;;;;;2.35;1.48;;;;;;;26.00;41.77;101203.25;5087836;28;20023;-66
2023/05/10 09:40:20;;;;;;;2.70;1.83;;;;;;;26.22;41.10;101210.66;5054049;28;20214;-66
2023/05/10 09:42:56;;;;;;;2.42;1.85;;;;;;;24.59;43.49;101212.44;5075832;28;20174;-66
2023/05/10 09:45:23;;;;;;;3.45;1.40;;;;;;;24.89;43.72;101220.38;5061441;28;20032;-65
2023/05/10 09:47:48;;;;;;;3.03;1.42;;;;;;;25.43;43.56;101224.03;5074911;28;20024;-66
2023/05/10 09:50:14;;;;;;;3.17;1.17;;;;;;;25.49;42.81;101218.28;5062645;28;20392;-66
2023/05/10 09:53:00;;;;;;;3.33;1.35;;;;;;;24.87;44.48;101224.94;5082753;28;20031;-65
2023/05/10 09:55:44;;;;;;;2.40;0.93;;;;;;;23.67;46.97;101226.91;5072079;28;20067;-65
2023/05/10 09:58:10;;;;;;;1.13;1.00;;;;;;;24.12;46.19;101230.47;5088441;28;20040;-65
2023/05/10 10:00:41;;;;;;;1.52;0.98;;;;;;;24.47;46.06;101232.78;5080864;28;20028;-66
2023/05/10 10:03:13;;;;;;;1.73;1.10;;;;;;;24.08;46.62;101228.94;5069013;28;20024;-65
2023/05/10 10:05:40;;;;;;;4.00;2.53;;;;;;;25.24;45.05;101230.56;5072159;28;20049;-66
2023/05/10 10:08:06;;;;;;;6.63;4.13;;;;;;;24.72;46.28;101223.25;5090707;28;20641;-65
2023/05/10 10:10:33;;;;;;;7.10;4.50;;;;;;;24.34;46.75;101234.50;5073542;28;20023;-66
2023/05/10 10:12:59;;;;;;;5.28;3.83;;;;;;;25.07;46.04;101228.13;5089320;28;20024;-66
2023/05/10 10:15:24;;;;;;;7.35;4.60;;;;;;;24.50;46.89;101235.25;5083404;28;20024;-66
2023/05/10 10:17:51;;;;;;;5.15;3.85;;;;;;;24.77;46.88;101237.19;5088497;28;20035;-66
2023/05/10 10:20:18;;;;;;;4.40;3.30;;;;;;;23.94;47.59;101242.28;5088808;28;20046;-66
2023/05/10 10:22:44;;;;;;;3.85;2.75;;;;;;;24.23;47.86;101235.16;5090553;28;20539;-66
2023/05/10 10:25:15;;;;;;;5.30;2.67;;;;;;;24.29;47.25;101236.59;5088002;28;20127;-66
2023/05/10 10:27:53;;;;;;;2.08;1.85;;;;;;;23.84;48.03;101241.94;5048909;28;20032;-64
2023/05/10 10:30:41;;;;;;;5.03;2.47;;;;;;;24.30;47.34;101240.97;5054661;28;20442;-66
2023/05/10 10:33:28;;;;;;;2.95;2.15;;;;;;;24.33;46.87;101238.13;5074633;28;20039;-66
2023/05/10 10:35:55;;;;;;;4.45;2.67;;;;;;;24.45;46.95;101248.03;5073571;28;20106;-66
2023/05/10 10:38:21;;;;;;;4.75;2.53;;;;;;;24.42;46.22;101245.56;5072296;28;20516;-65
2023/05/10 10:40:47;;;;;;;3.10;2.20;;;;;;;24.24;46.44;101236.03;5073837;28;20047;-66
2023/05/10 10:43:26;;;;;;;4.03;2.88;;;;;;;25.33;44.34;101238.97;5089706;28;20109;-66
2023/05/10 10:46:14;;;;;;;3.47;2.13;;;;;;;24.84;44.71;101232.28;5080536;28;20016;-66
2023/05/10 10:48:40;;;;;;;3.65;2.22;;;;;;;24.67;45.73;101236.03;5088811;28;20059;-66
2023/05/10 10:51:06;;;;;;;2.70;1.65;;;;;;;23.68;46.68;101236.63;5089392;28;20047;-66
2023/05/10 10:53:32;;;;;;;3.55;1.80;;;;;;;24.02;46.96;101242.66;5088343;28;20388;-66
2023/05/10 10:56:13;;;;;;;2.38;1.52;;;;;;;24.49;46.44;101244.22;5078667;28;20028;-65
2023/05/10 10:58:39;;;;;;;5.22;1.58;;;;;;;25.62;44.27;101236.19;5088527;28;20396;-66
2023/05/10 11:01:10;;;;;;;2.58;1.80;;;;;;;24.99;44.80;101241.13;5064056;28;20024;-66
2023/05/10 11:03:36;;;;;;;2.97;1.63;;;;;;;22.83;48.02;101255.63;5068946;28;20021;-65
2023/05/10 11:06:02;;;;;;;3.20;2.10;;;;;;;23.96;46.47;101251.03;5065977;28;20388;-66
2023/05/10 11:08:30;;;;;;;3.15;2.05;;;;;;;23.91;46.27;101254.00;5062259;28;20121;-66
2023/05/10 11:10:58;;;;;;;3.47;2.08;;;;;;;23.51;47.21;101257.16;5047723;28;20032;-65
2023/05/10 11:13:41;;;;;;;4.18;2.25;;;;;;;22.59;48.97;101259.63;5046670;28;20036;-66
2023/05/10 11:16:12;;;;;;;6.30;2.85;;;;;;;24.98;44.90;101247.47;5064251;28;20401;-66
2023/05/10 11:18:37;;;;;;;3.38;2.38;;;;;;;24.84;45.15;101251.88;5048115;28;20124;-66
2023/05/10 11:21:04;;;;;;;3.45;2.33;;;;;;;23.34;47.58;101265.25;5054909;28;20116;-66
2023/05/10 11:23:49;;;;;;;2.70;1.67;;;;;;;23.59;47.11;101263.84;5047729;28;20273;-67